Time;durP1;ratioP1;P1;durP2;ratioP2;P2;SDS_P1;SDS_P2;PMS_P1;PMS_P2;Temp;Humidity;BMP_temperature;BMP_pressure;BME280_temperature;BME280_humidity;BME280_pressure;Samples;Min_cycle;Max_cycle;Signal;HPM_P1;HPM_P2
2023/04/13 00:02:19;;;;;;;5.53;2.83;;;;;;;8.22;53.72;94102.06;5073472;28;20443;-75
2023/04/13 00:04:49;;;;;;;5.33;3.67;;;;;;;8.16;54.02;94106.03;5073477;28;20450;-76
2023/04/13 00:07:16;;;;;;;8.90;5.20;;;;;;;8.07;55.62;94106.81;5073292;28;20495;-76
2023/04/13 00:09:46;;;;;;;7.43;5.17;;;;;;;7.89;57.11;94098.00;5073734;28;20453;-76
2023/04/13 00:12:15;;;;;;;5.77;5.20;;;;;;;7.92;58.10;94098.56;5073869;28;20867;-77
2023/04/13 00:14:42;;;;;;;7.47;5.37;;;;;;;7.96;58.19;94109.56;5073698;28;20486;-76
2023/04/13 00:17:09;;;;;;;7.93;5.67;;;;;;;7.98;58.70;94112.88;5073851;28;20472;-76
2023/04/13 00:19:36;;;;;;;5.47;4.97;;;;;;;8.00;58.65;94117.00;5073279;28;20507;-75
2023/04/13 00:22:08;;;;;;;8.77;5.53;;;;;;;8.03;58.70;94116.72;5073631;28;20455;-76
2023/04/13 00:24:35;;;;;;;8.90;6.40;;;;;;;8.04;58.52;94122.78;5073579;28;20447;-76
2023/04/13 00:27:03;;;;;;;18.17;6.30;;;;;;;8.02;58.95;94117.69;5073816;28;20462;-77
2023/04/13 00:29:31;;;;;;;6.53;4.97;;;;;;;7.99;58.59;94128.41;5074027;28;20454;-76
2023/04/13 00:31:58;;;;;;;7.00;5.90;;;;;;;8.01;58.29;94116.03;5073384;28;20442;-76
2023/04/13 00:34:25;;;;;;;7.70;5.50;;;;;;;8.05;58.16;94119.19;5073478;28;20494;-75
2023/04/13 00:36:52;;;;;;;7.83;4.40;;;;;;;8.05;57.75;94114.81;5073065;28;21024;-76
2023/04/13 00:39:21;;;;;;;6.87;4.20;;;;;;;8.06;56.99;94113.84;5073443;28;20461;-76
2023/04/13 00:41:51;;;;;;;5.07;4.57;;;;;;;8.08;56.78;94111.09;5073322;28;20447;-75
2023/04/13 00:44:20;;;;;;;5.17;4.30;;;;;;;8.12;56.38;94119.50;5072695;28;20434;-76
2023/04/13 00:46:49;;;;;;;4.10;3.60;;;;;;;8.03;56.98;94111.50;5072999;28;20462;-76
2023/04/13 00:49:17;;;;;;;3.93;3.53;;;;;;;7.95;56.08;94119.19;5072827;28;20975;-77
2023/04/13 00:51:45;;;;;;;5.20;3.50;;;;;;;7.91;55.79;94116.97;5072666;28;20453;-77
2023/04/13 00:54:14;;;;;;;7.70;3.50;;;;;;;7.85;56.00;94109.69;5072868;28;20513;-77
2023/04/13 00:56:42;;;;;;;3.30;2.40;;;;;;;7.82;55.17;94116.00;5072646;28;20459;-75
2023/04/13 00:59:10;;;;;;;4.10;2.87;;;;;;;7.73;55.93;94106.31;5072657;28;20541;-76
2023/04/13 01:01:44;;;;;;;4.27;2.70;;;;;;;7.67;55.16;94112.91;5072727;28;20510;-77
2023/04/13 01:04:13;;;;;;;2.57;2.17;;;;;;;7.62;55.39;94112.47;5072726;28;20833;-77
2023/04/13 01:06:48;;;;;;;4.77;3.17;;;;;;;7.59;55.77;94119.75;5072822;28;20448;-77
2023/04/13 01:09:18;;;;;;;3.30;2.50;;;;;;;7.55;55.47;94115.75;5072854;28;20474;-76
2023/04/13 01:11:51;;;;;;;3.63;2.03;;;;;;;7.53;55.88;94122.91;5072657;28;20511;-77
2023/04/13 01:14:29;;;;;;;2.80;2.50;;;;;;;7.48;55.95;94112.81;5075312;28;20488;-76
2023/04/13 01:17:02;;;;;;;3.00;2.37;;;;;;;7.43;56.81;94122.81;5077002;28;20475;-76
2023/04/13 01:19:45;;;;;;;3.80;2.50;;;;;;;7.45;56.95;94123.53;5076386;28;20473;-77
2023/04/13 01:22:14;;;;;;;2.63;2.43;;;;;;;7.42;56.67;94116.78;5076256;28;20646;-76
2023/04/13 01:24:52;;;;;;;3.63;2.50;;;;;;;7.44;56.91;94125.31;5076154;28;20459;-76
2023/04/13 01:27:24;;;;;;;2.40;2.20;;;;;;;7.38;57.32;94118.00;5073862;28;20432;-77
2023/04/13 01:29:55;;;;;;;2.90;2.50;;;;;;;7.31;57.53;94124.69;5076122;28;20441;-77
2023/04/13 01:32:22;;;;;;;2.97;2.70;;;;;;;7.26;57.08;94120.84;5075828;28;20518;-76
2023/04/13 01:34:50;;;;;;;3.23;2.93;;;;;;;7.19;56.42;94122.28;5075521;28;20492;-76
2023/04/13 01:37:17;;;;;;;6.53;2.70;;;;;;;7.20;56.58;94124.75;5075585;28;20472;-76
2023/04/13 01:39:45;;;;;;;5.83;2.90;;;;;;;7.21;56.40;94129.03;5075477;28;20436;-77
2023/04/13 01:42:12;;;;;;;7.97;2.83;;;;;;;7.21;56.37;94131.63;5075502;28;20552;-77
2023/04/13 01:44:39;;;;;;;3.20;2.90;;;;;;;7.18;57.11;94121.44;5076093;28;20505;-76
2023/04/13 01:47:14;;;;;;;5.07;2.83;;;;;;;7.13;57.19;94121.00;5075646;28;20514;-76
2023/04/13 01:49:47;;;;;;;7.20;2.73;;;;;;;7.09;56.65;94124.84;5075640;28;20498;-76
2023/04/13 01:52:16;;;;;;;2.80;2.60;;;;;;;7.09;56.82;94120.44;5076179;28;20507;-76
2023/04/13 01:54:46;;;;;;;4.60;3.03;;;;;;;7.13;56.94;94110.59;5075078;28;21002;-77
2023/04/13 01:57:14;;;;;;;3.13;2.83;;;;;;;7.17;57.68;94111.97;5075127;28;20452;-77
2023/04/13 01:59:41;;;;;;;4.47;3.40;;;;;;;7.15;57.77;94103.44;5075238;28;20805;-77
2023/04/13 02:02:13;;;;;;;5.13;2.80;;;;;;;7.10;56.80;94110.84;5075219;28;20856;-76
2023/04/13 02:04:40;;;;;;;4.07;2.20;;;;;;;7.11;56.88;94108.09;5075437;28;20991;-77
2023/04/13 02:07:07;;;;;;;2.53;2.17;;;;;;;7.12;56.58;94098.50;5075515;28;20542;-76
2023/04/13 02:09:34;;;;;;;2.60;2.40;;;;;;;7.12;56.56;94099.31;5075254;28;20459;-77
2023/04/13 02:12:02;;;;;;;2.63;2.33;;;;;;;7.13;57.45;94105.38;5075367;28;20517;-78
2023/04/13 02:14:29;;;;;;;4.97;2.60;;;;;;;7.14;56.96;94107.00;5075042;28;20546;-77
2023/04/13 02:16:56;;;;;;;3.70;2.97;;;;;;;7.11;57.32;94108.09;5075043;28;20473;-77
2023/04/13 02:19:24;;;;;;;3.03;2.73;;;;;;;7.05;57.47;94098.19;5074996;28;20445;-76
2023/04/13 02:21:52;;;;;;;3.27;2.97;;;;;;;7.07;56.99;94116.31;5074547;28;20441;-76
2023/04/13 02:24:18;;;;;;;5.17;2.77;;;;;;;7.07;57.84;94124.97;5074859;28;20523;-76
2023/04/13 02:26:45;;;;;;;2.67;2.43;;;;;;;7.05;56.87;94132.09;5074870;28;20440;-75
2023/04/13 02:29:12;;;;;;;4.27;2.70;;;;;;;7.03;57.82;94128.78;5075149;28;20446;-77
2023/04/13 02:31:44;;;;;;;7.57;2.63;;;;;;;7.02;58.03;94131.53;5075433;28;20444;-76
2023/04/13 02:34:11;;;;;;;2.43;2.23;;;;;;;6.98;57.85;94125.75;5074999;28;20511;-76
2023/04/13 02:36:39;;;;;;;3.57;2.70;;;;;;;6.91;58.19;94121.97;5074804;28;20448;-77
2023/04/13 02:39:06;;;;;;;3.50;2.50;;;;;;;6.86;58.26;94131.13;5074589;28;21193;-76
2023/04/13 02:41:33;;;;;;;6.07;2.70;;;;;;;6.88;58.12;94137.03;5074960;28;20442;-77
2023/04/13 02:44:00;;;;;;;4.30;3.00;;;;;;;6.87;59.08;94141.44;5072616;28;20846;-76
2023/04/13 02:46:27;;;;;;;4.33;2.63;;;;;;;6.87;58.90;94141.44;5074696;28;20440;-76
2023/04/13 02:48:54;;;;;;;2.70;2.50;;;;;;;6.87;59.27;94130.19;5074787;28;20444;-76
2023/04/13 02:51:22;;;;;;;7.10;2.60;;;;;;;6.84;59.75;94139.91;5074672;28;20450;-76
2023/04/13 02:53:51;;;;;;;6.17;3.77;;;;;;;6.83;58.99;94146.06;5074469;28;20480;-77
2023/04/13 02:56:18;;;;;;;5.03;2.93;;;;;;;6.80;59.00;94141.13;5075183;28;20460;-76
2023/04/13 02:58:44;;;;;;;4.70;3.00;;;;;;;6.77;59.62;94143.16;5074976;28;20517;-76
2023/04/13 03:01:11;;;;;;;3.27;2.37;;;;;;;6.75;59.40;94143.28;5074688;28;20455;-76
2023/04/13 03:03:40;;;;;;;3.50;2.90;;;;;;;6.76;60.04;94146.72;5074575;28;20456;-76
2023/04/13 03:06:07;;;;;;;3.37;2.80;;;;;;;6.73;59.46;94153.00;5074888;28;20449;-77
2023/04/13 03:08:35;;;;;;;7.70;3.30;;;;;;;6.70;59.65;94145.44;5074653;28;20440;-76
2023/04/13 03:11:08;;;;;;;4.67;3.40;;;;;;;6.67;60.20;94144.88;5074104;28;20448;-77
2023/04/13 03:13:35;;;;;;;5.43;3.07;;;;;;;6.59;60.67;94140.25;5074588;28;20453;-77
2023/04/13 03:16:03;;;;;;;4.43;2.63;;;;;;;6.59;59.39;94148.06;5074025;28;20472;-77
2023/04/13 03:18:30;;;;;;;8.50;3.40;;;;;;;6.57;59.59;94151.75;5074326;28;20445;-76
2023/04/13 03:20:57;;;;;;;6.13;3.83;;;;;;;6.54;59.94;94160.66;5074535;28;20849;-75
2023/04/13 03:23:24;;;;;;;5.43;3.30;;;;;;;6.56;60.45;94152.72;5055249;28;20469;-76
2023/04/13 03:25:51;;;;;;;8.80;4.57;;;;;;;6.53;60.08;94148.56;5073838;28;20793;-76
2023/04/13 03:28:19;;;;;;;4.80;3.50;;;;;;;6.52;60.38;94154.75;5072883;28;21004;-76
2023/04/13 03:30:45;;;;;;;4.13;3.73;;;;;;;6.55;59.97;94151.88;5071708;28;20460;-77
2023/04/13 03:33:12;;;;;;;5.90;3.77;;;;;;;6.56;60.30;94157.91;5071745;28;20776;-77
2023/04/13 03:35:39;;;;;;;4.40;3.77;;;;;;;6.48;60.97;94155.94;5037624;28;20515;-76
2023/04/13 03:38:06;;;;;;;3.80;3.07;;;;;;;6.41;60.44;94165.22;5073746;28;20468;-77
2023/04/13 03:40:33;;;;;;;4.10;3.43;;;;;;;6.41;60.75;94167.81;5074132;28;20447;-76
2023/04/13 03:42:59;;;;;;;8.50;4.40;;;;;;;6.36;60.39;94172.53;5062834;28;20453;-76
2023/04/13 03:45:27;;;;;;;4.10;3.50;;;;;;;6.27;60.88;94168.06;5063657;28;20530;-77
2023/04/13 03:47:54;;;;;;;6.93;3.93;;;;;;;6.19;60.70;94172.13;5055602;28;20506;-76
2023/04/13 03:50:21;;;;;;;5.70;4.07;;;;;;;6.13;61.06;94183.03;5073246;28;20775;-76
2023/04/13 03:52:48;;;;;;;5.77;3.70;;;;;;;6.10;61.85;94172.84;5055142;28;20444;-77
2023/04/13 03:55:15;;;;;;;12.30;3.90;;;;;;;6.07;61.96;94175.72;5073494;28;20491;-77
2023/04/13 03:57:42;;;;;;;12.17;3.80;;;;;;;6.07;62.67;94177.47;5073672;28;20942;-77
2023/04/13 04:00:12;;;;;;;3.70;3.27;;;;;;;5.99;62.39;94167.66;5073687;28;20449;-76
2023/04/13 04:02:41;;;;;;;6.40;4.27;;;;;;;6.08;63.13;94181.75;5073597;28;20908;-77
2023/04/13 04:05:09;;;;;;;9.60;4.67;;;;;;;6.16;63.96;94176.75;5073677;28;20500;-78
2023/04/13 04:07:35;;;;;;;4.63;4.23;;;;;;;6.35;63.43;94169.09;5073527;28;20538;-77
2023/04/13 04:10:02;;;;;;;11.50;4.93;;;;;;;6.56;63.35;94163.97;5073407;28;20460;-77
2023/04/13 04:12:29;;;;;;;5.83;4.30;;;;;;;7.06;60.92;94172.06;5073679;28;20502;-76
2023/04/13 04:14:56;;;;;;;6.03;4.80;;;;;;;7.82;58.77;94173.47;5073051;28;20492;-77
2023/04/13 04:17:22;;;;;;;7.70;5.03;;;;;;;8.46;56.94;94170.50;5073735;28;20492;-77
2023/04/13 04:19:51;;;;;;;5.27;3.73;;;;;;;9.39;54.01;94175.19;5073523;28;20454;-78
2023/04/13 04:22:17;;;;;;;4.87;4.33;;;;;;;10.31;51.69;94177.94;5071568;28;20484;-77
2023/04/13 04:24:44;;;;;;;8.93;3.80;;;;;;;11.26;48.21;94173.97;5073168;28;20448;-76
2023/04/13 04:27:13;;;;;;;10.63;3.87;;;;;;;11.92;46.12;94168.22;5074050;28;20468;-77
2023/04/13 04:29:40;;;;;;;5.17;4.00;;;;;;;12.71;43.67;94178.41;5073428;28;20450;-77
2023/04/13 04:32:09;;;;;;;4.27;3.87;;;;;;;13.41;41.92;94175.44;5073024;28;20451;-77
2023/04/13 04:34:37;;;;;;;6.10;3.80;;;;;;;13.75;43.17;94180.50;5072922;28;20482;-75
2023/04/13 04:37:05;;;;;;;5.73;3.23;;;;;;;14.06;44.27;94183.25;5073058;28;20457;-77
2023/04/13 04:39:34;;;;;;;12.63;4.30;;;;;;;14.52;42.07;94189.59;5072927;28;21051;-77
2023/04/13 04:42:02;;;;;;;4.40;3.17;;;;;;;14.95;40.74;94185.56;5073581;28;20455;-77
2023/04/13 04:44:30;;;;;;;7.73;3.97;;;;;;;15.39;37.83;94180.50;5073469;28;20449;-78
2023/04/13 04:46:59;;;;;;;8.20;3.83;;;;;;;15.65;37.92;94182.00;5073128;28;20472;-78
2023/04/13 04:49:26;;;;;;;7.63;3.90;;;;;;;15.67;36.99;94172.06;5072896;28;20944;-78
2023/04/13 04:51:53;;;;;;;4.07;3.40;;;;;;;15.43;37.67;94171.22;5072893;28;20440;-78
2023/04/13 04:54:21;;;;;;;13.90;9.20;;;;;;;16.05;58.09;94181.63;5072772;28;20446;-79
2023/04/13 04:56:48;;;;;;;5.07;4.60;;;;;;;15.83;37.73;94181.66;5072830;28;20502;-78
2023/04/13 04:59:16;;;;;;;5.00;4.20;;;;;;;15.82;37.36;94178.19;5072958;28;20505;-78
2023/04/13 05:01:43;;;;;;;6.27;4.00;;;;;;;15.84;37.06;94185.94;5073108;28;20900;-78
2023/04/13 05:04:10;;;;;;;5.37;3.83;;;;;;;15.72;36.95;94196.16;5073509;28;20445;-78
2023/04/13 05:06:39;;;;;;;7.77;3.37;;;;;;;15.67;36.55;94191.41;5073248;28;20475;-79
2023/04/13 05:09:08;;;;;;;4.07;3.00;;;;;;;15.54;36.44;94187.66;5072860;28;21023;-78
2023/04/13 05:11:36;;;;;;;6.67;3.67;;;;;;;15.34;36.93;94188.16;5075073;28;20813;-78
2023/04/13 05:14:03;;;;;;;5.13;3.27;;;;;;;15.43;36.69;94188.91;5073116;28;20448;-78
2023/04/13 05:16:30;;;;;;;4.13;3.47;;;;;;;15.53;37.12;94191.31;5073235;28;20504;-78
2023/04/13 05:18:57;;;;;;;3.30;3.00;;;;;;;15.45;37.03;94190.38;5073197;28;20441;-77
2023/04/13 05:21:25;;;;;;;6.73;3.67;;;;;;;15.50;37.41;94192.47;5073264;28;20865;-78
2023/04/13 05:23:52;;;;;;;4.53;3.00;;;;;;;15.56;36.93;94189.13;5072946;28;21053;-75
2023/04/13 05:26:19;;;;;;;3.43;2.80;;;;;;;15.75;36.53;94179.91;5073486;28;20448;-78
2023/04/13 05:28:47;;;;;;;3.63;2.40;;;;;;;15.75;35.47;94187.84;5072727;28;20452;-74
2023/04/13 05:31:14;;;;;;;4.20;2.90;;;;;;;16.10;35.99;94183.72;5072809;28;20448;-76
2023/04/13 05:33:41;;;;;;;8.03;4.87;;;;;;;17.65;100.00;94183.38;5073237;28;20926;-78
2023/04/13 05:36:09;;;;;;;5.70;3.20;;;;;;;19.18;50.81;94203.81;5072280;28;20480;-80
2023/04/13 05:38:35;;;;;;;3.70;2.80;;;;;;;20.56;42.54;94192.53;5071880;28;20994;-80
2023/04/13 05:41:03;;;;;;;3.83;3.20;;;;;;;21.13;36.21;94190.09;5071850;28;20451;-80
2023/04/13 05:43:29;;;;;;;9.87;4.20;;;;;;;21.32;32.06;94182.00;5072434;28;20472;-79
2023/04/13 05:45:58;;;;;;;7.57;4.10;;;;;;;21.50;31.31;94183.16;5072620;28;20444;-78
2023/04/13 05:48:25;;;;;;;11.30;3.40;;;;;;;21.89;30.04;94182.88;5072815;28;20832;-80
2023/04/13 05:50:56;;;;;;;6.13;3.30;;;;;;;21.99;30.08;94186.94;5037535;28;20472;-78
2023/04/13 05:53:24;;;;;;;6.07;2.93;;;;;;;22.06;28.73;94188.56;5037625;28;20450;-80
2023/04/13 05:55:51;;;;;;;4.33;3.60;;;;;;;21.74;28.97;94190.41;5071610;28;20536;-80
2023/04/13 05:58:19;;;;;;;7.90;4.80;;;;;;;21.02;31.34;94188.88;5069457;28;20579;-79
2023/04/13 06:00:45;;;;;;;6.83;4.30;;;;;;;21.17;30.07;94185.97;5072965;28;20446;-79
2023/04/13 06:03:15;;;;;;;9.67;4.60;;;;;;;21.17;28.35;94181.44;5075706;28;20448;-82
2023/04/13 06:05:42;;;;;;;6.87;5.03;;;;;;;20.80;30.14;94166.19;5076036;28;20436;-78
2023/04/13 06:08:10;;;;;;;6.33;4.03;;;;;;;20.03;32.16;94165.91;5075983;28;20835;-78
2023/04/13 06:10:37;;;;;;;5.30;4.17;;;;;;;19.72;33.93;94171.84;5075753;28;20425;-78
2023/04/13 06:13:04;;;;;;;6.00;4.10;;;;;;;20.06;31.93;94162.00;5075671;28;20788;-80
2023/04/13 06:15:31;;;;;;;9.30;4.07;;;;;;;20.61;33.44;94168.72;5071531;28;20568;-80
2023/04/13 06:17:58;;;;;;;8.73;4.73;;;;;;;20.95;30.70;94180.09;5076013;28;20460;-83
2023/04/13 06:20:26;;;;;;;7.80;4.47;;;;;;;20.40;31.17;94166.28;5057112;28;20484;-78
2023/04/13 06:22:53;;;;;;;5.95;4.35;;;;;;;20.56;33.34;94175.72;5075675;28;20916;-80
2023/04/13 06:25:20;;;;;;;5.93;4.00;;;;;;;21.09;32.36;94175.50;5077867;28;20198;-78
2023/04/13 06:27:48;;;;;;;7.00;4.03;;;;;;;21.42;30.80;94181.56;5075727;28;20441;-79
2023/04/13 06:30:15;;;;;;;9.07;4.70;;;;;;;21.63;28.20;94183.88;5076170;28;20493;-78
2023/04/13 06:32:42;;;;;;;15.63;4.40;;;;;;;21.39;28.55;94184.63;5075834;28;20457;-79
2023/04/13 06:35:09;;;;;;;6.97;4.43;;;;;;;21.01;33.22;94184.56;5075338;28;20477;-79
2023/04/13 06:37:38;;;;;;;8.20;4.60;;;;;;;21.28;39.70;94190.66;5075709;28;20439;-78
2023/04/13 06:40:11;;;;;;;5.47;3.80;;;;;;;21.58;38.93;94181.03;5075281;28;20437;-79
2023/04/13 06:42:39;;;;;;;10.87;5.20;;;;;;;22.23;42.25;94186.97;5075748;28;20492;-84
2023/04/13 06:45:11;;;;;;;11.07;5.43;;;;;;;22.67;36.11;94190.47;5075095;28;20461;-81
2023/04/13 06:47:42;;;;;;;12.57;4.63;;;;;;;22.88;33.28;94186.59;5075513;28;20443;-79
2023/04/13 06:50:12;;;;;;;9.13;4.20;;;;;;;22.69;32.53;94176.88;5075334;28;20448;-78
2023/04/13 06:52:42;;;;;;;11.03;4.40;;;;;;;21.96;27.74;94178.31;5075244;28;20441;-77
2023/04/13 06:55:09;;;;;;;4.57;4.10;;;;;;;21.26;27.88;94176.72;5032577;28;20495;-77
2023/04/13 06:57:36;;;;;;;9.67;3.40;;;;;;;20.24;28.62;94175.53;5075076;28;20442;-78
2023/04/13 07:00:05;;;;;;;6.50;4.10;;;;;;;19.48;29.97;94175.03;5075333;28;20867;-79
2023/04/13 07:02:31;;;;;;;5.50;3.50;;;;;;;18.74;30.69;94180.28;5075296;28;20795;-79
2023/04/13 07:04:58;;;;;;;6.47;4.10;;;;;;;17.46;32.95;94173.41;5075062;28;20457;-78
2023/04/13 07:07:25;;;;;;;5.73;3.90;;;;;;;17.67;34.42;94177.91;5074774;28;20938;-79
2023/04/13 07:09:54;;;;;;;4.17;3.77;;;;;;;17.62;33.13;94183.75;5074967;28;20432;-80
2023/04/13 07:12:20;;;;;;;11.43;4.50;;;;;;;17.72;33.27;94187.97;5074331;28;20455;-78
2023/04/13 07:14:48;;;;;;;4.60;3.43;;;;;;;17.02;33.89;94181.50;5074854;28;20434;-79
2023/04/13 07:17:15;;;;;;;5.57;3.57;;;;;;;16.95;34.45;94183.25;5074523;28;20492;-78
2023/04/13 07:19:46;;;;;;;5.93;3.60;;;;;;;16.62;34.74;94181.00;5074645;28;20450;-79
2023/04/13 07:22:13;;;;;;;5.77;4.37;;;;;;;16.39;34.65;94182.91;5074820;28;20852;-79
2023/04/13 07:24:40;;;;;;;4.40;3.43;;;;;;;16.58;34.50;94177.06;5075085;28;20430;-80
2023/04/13 07:27:08;;;;;;;5.13;3.53;;;;;;;16.91;36.44;94176.69;5074829;28;20433;-80
2023/04/13 07:29:35;;;;;;;3.77;3.40;;;;;;;16.52;33.99;94177.81;5074759;28;20440;-79
2023/04/13 07:32:05;;;;;;;10.33;4.50;;;;;;;16.48;34.20;94173.03;5074204;28;20463;-79
2023/04/13 07:34:32;;;;;;;7.07;3.90;;;;;;;16.77;38.38;94169.56;5038707;28;20569;-76
2023/04/13 07:36:59;;;;;;;4.57;3.30;;;;;;;16.92;33.13;94167.72;5072326;28;20495;-76
2023/04/13 07:39:26;;;;;;;9.30;3.70;;;;;;;17.02;32.39;94163.75;5073870;28;20445;-77
2023/04/13 07:41:53;;;;;;;3.13;2.80;;;;;;;16.96;34.75;94158.38;5073678;28;20445;-77
2023/04/13 07:44:21;;;;;;;4.60;3.80;;;;;;;17.03;33.70;94156.63;5074355;28;20440;-76
2023/04/13 07:46:48;;;;;;;4.27;3.70;;;;;;;16.94;33.18;94149.81;5073744;28;20474;-77
2023/04/13 07:49:15;;;;;;;5.47;3.20;;;;;;;17.01;33.49;94146.22;5055969;28;20482;-77
2023/04/13 07:51:41;;;;;;;4.20;3.80;;;;;;;17.12;33.43;94152.88;5054340;28;20450;-78
2023/04/13 07:54:08;;;;;;;8.50;3.93;;;;;;;16.99;33.48;94152.72;5069462;28;20457;-78
2023/04/13 07:56:36;;;;;;;5.57;3.77;;;;;;;16.28;33.49;94160.38;5074202;28;20981;-78
2023/04/13 07:59:02;;;;;;;6.57;4.13;;;;;;;16.30;33.25;94161.00;5074075;28;20515;-77
2023/04/13 08:01:31;;;;;;;6.87;3.37;;;;;;;16.66;33.19;94149.69;5073952;28;20471;-78
2023/04/13 08:03:57;;;;;;;5.70;4.10;;;;;;;16.38;33.47;94146.84;5073964;28;20857;-79
2023/04/13 08:06:26;;;;;;;7.03;3.90;;;;;;;16.60;34.51;94147.75;5038609;28;20460;-79
2023/04/13 08:08:53;;;;;;;6.33;4.30;;;;;;;16.84;35.07;94149.28;5073948;28;20457;-78
2023/04/13 08:11:20;;;;;;;8.50;4.40;;;;;;;17.00;35.03;94143.75;5073875;28;20444;-78
2023/04/13 08:13:47;;;;;;;11.00;4.70;;;;;;;16.97;33.60;94147.59;5074092;28;20881;-77
2023/04/13 08:16:15;;;;;;;7.60;3.93;;;;;;;17.10;33.90;94146.94;5073608;28;20494;-77
2023/04/13 08:18:43;;;;;;;14.13;3.90;;;;;;;16.48;34.03;94144.75;5073828;28;20454;-78
2023/04/13 08:21:11;;;;;;;4.60;3.17;;;;;;;16.58;33.60;94139.16;5038271;28;20448;-77
2023/04/13 08:23:41;;;;;;;6.70;3.03;;;;;;;16.91;34.18;94139.59;5071011;28;20443;-77
2023/04/13 08:26:08;;;;;;;8.13;3.73;;;;;;;17.31;34.03;94138.16;5073810;28;20506;-79
2023/04/13 08:28:35;;;;;;;4.77;3.57;;;;;;;17.31;32.55;94130.19;5038424;28;20437;-79
2023/04/13 08:31:02;;;;;;;4.77;3.10;;;;;;;17.39;32.51;94131.91;5073811;28;20445;-77
2023/04/13 08:33:29;;;;;;;4.10;3.30;;;;;;;17.36;31.75;94125.16;5073298;28;20449;-77
2023/04/13 08:35:57;;;;;;;2.87;2.67;;;;;;;17.69;32.47;94111.38;5073008;28;20508;-76
2023/04/13 08:38:24;;;;;;;3.90;3.03;;;;;;;17.43;32.43;94117.25;5073572;28;20448;-78
2023/04/13 08:40:51;;;;;;;12.07;3.60;;;;;;;17.29;33.29;94117.13;5073426;28;20452;-79
2023/04/13 08:43:19;;;;;;;3.60;3.10;;;;;;;17.48;32.80;94117.50;5073337;28;20444;-77
2023/04/13 08:45:47;;;;;;;17.50;5.07;;;;;;;17.69;33.18;94117.53;5072967;28;20536;-78
2023/04/13 08:48:14;;;;;;;3.33;3.00;;;;;;;17.81;33.32;94109.84;5073539;28;20448;-78
2023/04/13 08:50:43;;;;;;;14.57;3.50;;;;;;;17.64;33.44;94115.41;5073754;28;20445;-77
2023/04/13 08:53:11;;;;;;;5.80;3.47;;;;;;;17.57;33.06;94119.00;5073290;28;20449;-78
2023/04/13 08:55:44;;;;;;;11.80;3.53;;;;;;;17.81;32.96;94118.63;5072932;28;20455;-78
2023/04/13 08:58:13;;;;;;;7.23;3.80;;;;;;;18.04;33.03;94110.41;5072801;28;20937;-78
2023/04/13 09:00:42;;;;;;;3.33;3.03;;;;;;;17.86;33.37;94102.94;5054461;28;20455;-78
2023/04/13 09:03:13;;;;;;;5.90;3.60;;;;;;;18.05;32.98;94104.09;5072844;28;20800;-78
2023/04/13 09:05:42;;;;;;;6.57;3.70;;;;;;;18.32;33.90;94094.44;5073051;28;20535;-78
2023/04/13 09:08:12;;;;;;;4.83;3.20;;;;;;;18.34;33.20;94100.38;5073220;28;20447;-78
2023/04/13 09:10:39;;;;;;;7.30;4.13;;;;;;;18.47;32.60;94105.72;5073135;28;20953;-78
2023/04/13 09:13:06;;;;;;;6.60;3.60;;;;;;;18.69;33.11;94101.16;5073289;28;20468;-78
2023/04/13 09:15:33;;;;;;;6.87;3.57;;;;;;;18.80;33.44;94105.94;5072945;28;20456;-78
2023/04/13 09:18:08;;;;;;;9.10;4.27;;;;;;;18.97;32.95;94094.91;5073276;28;20462;-79
2023/04/13 09:20:35;;;;;;;7.17;4.50;;;;;;;18.56;32.49;94099.25;5072924;28;20453;-77
2023/04/13 09:23:14;;;;;;;7.37;3.57;;;;;;;18.66;34.15;94098.09;5072656;28;20500;-78
2023/04/13 09:25:42;;;;;;;8.27;3.37;;;;;;;18.63;33.25;94098.47;5072784;28;20816;-79
2023/04/13 09:28:16;;;;;;;9.67;3.77;;;;;;;18.72;33.45;94095.44;5073352;28;20429;-77
2023/04/13 09:30:43;;;;;;;9.07;3.90;;;;;;;18.79;33.03;94084.84;5072953;28;20444;-78
2023/04/13 09:33:10;;;;;;;4.13;3.40;;;;;;;18.18;33.75;94090.06;5072693;28;20455;-77
2023/04/13 09:35:39;;;;;;;10.70;3.83;;;;;;;18.28;33.20;94085.22;5075324;28;20447;-77
2023/04/13 09:38:07;;;;;;;7.60;3.90;;;;;;;18.46;34.36;94077.53;5074651;28;20482;-78
2023/04/13 09:40:37;;;;;;;7.00;4.23;;;;;;;18.56;34.26;94075.34;5074949;28;20442;-78
2023/04/13 09:43:06;;;;;;;3.50;3.20;;;;;;;18.27;34.66;94075.63;5074866;28;20447;-77
2023/04/13 09:45:37;;;;;;;10.40;4.40;;;;;;;18.32;34.49;94069.72;5039919;28;20481;-76
2023/04/13 09:48:15;;;;;;;7.03;3.23;;;;;;;18.07;34.19;94070.19;5074791;28;20474;-77
2023/04/13 09:50:42;;;;;;;7.33;3.80;;;;;;;17.83;34.91;94071.47;5076732;28;20504;-78
2023/04/13 09:53:09;;;;;;;10.17;3.73;;;;;;;18.05;34.74;94058.13;5075325;28;20455;-77
2023/04/13 09:55:38;;;;;;;4.87;3.40;;;;;;;18.04;35.21;94061.81;5075717;28;20997;-77
2023/04/13 09:58:09;;;;;;;7.10;3.37;;;;;;;18.24;35.19;94057.44;5076075;28;20515;-77
2023/04/13 10:00:37;;;;;;;8.20;3.90;;;;;;;18.26;35.39;94050.06;5075453;28;20483;-78
2023/04/13 10:03:06;;;;;;;3.63;3.10;;;;;;;18.19;33.96;94054.50;5075020;28;20452;-77
2023/04/13 10:05:35;;;;;;;9.53;3.73;;;;;;;17.78;34.73;94049.19;5075281;28;20456;-78
2023/04/13 10:08:03;;;;;;;6.67;4.07;;;;;;;17.85;35.79;94042.09;5075486;28;20448;-77
2023/04/13 10:10:29;;;;;;;7.27;4.20;;;;;;;18.03;35.53;94038.94;5075828;28;20458;-77
2023/04/13 10:13:01;;;;;;;10.37;3.97;;;;;;;18.13;36.21;94031.41;5075850;28;20457;-77
2023/04/13 10:15:39;;;;;;;16.27;3.60;;;;;;;18.14;35.72;94035.69;5075408;28;20451;-77
2023/04/13 10:18:16;;;;;;;5.97;3.73;;;;;;;18.21;35.41;94018.81;5075991;28;20571;-77
2023/04/13 10:20:43;;;;;;;12.27;4.37;;;;;;;18.33;35.34;94029.66;5076038;28;20481;-78
2023/04/13 10:23:11;;;;;;;9.43;4.90;;;;;;;18.53;34.03;94021.78;5075868;28;20452;-77
2023/04/13 10:25:38;;;;;;;4.50;4.10;;;;;;;18.65;35.07;94017.53;5076151;28;20484;-78
2023/04/13 10:28:06;;;;;;;8.63;5.43;;;;;;;18.82;35.43;94021.47;5040930;28;20442;-79
2023/04/13 10:30:33;;;;;;;9.90;4.57;;;;;;;18.86;53.19;94022.72;5075587;28;20503;-85
2023/04/13 10:33:09;;;;;;;9.83;4.43;;;;;;;19.40;39.30;94015.59;5075902;28;21186;-87
2023/04/13 10:35:37;;;;;;;7.80;4.87;;;;;;;19.30;35.06;94009.84;5055095;28;21585;-82
2023/04/13 10:38:04;;;;;;;5.57;3.70;;;;;;;19.20;35.76;94015.59;5068921;28;20492;-82
2023/04/13 10:40:42;;;;;;;9.30;4.87;;;;;;;18.96;35.39;94008.19;5075207;28;20529;-81
2023/04/13 10:43:10;;;;;;;5.30;4.00;;;;;;;19.49;40.89;93993.06;5075998;28;20471;-79
2023/04/13 10:45:37;;;;;;;12.87;5.77;;;;;;;19.56;34.29;94006.38;5075037;28;20948;-80
2023/04/13 10:48:05;;;;;;;14.90;5.40;;;;;;;19.39;35.39;93998.81;5075569;28;20460;-79
2023/04/13 10:50:32;;;;;;;12.83;4.73;;;;;;;19.29;34.14;94002.88;5074795;28;21019;-80
2023/04/13 10:53:01;;;;;;;7.00;4.30;;;;;;;19.32;34.42;93994.50;5075202;28;20457;-78
2023/04/13 10:55:29;;;;;;;8.43;5.03;;;;;;;19.31;35.00;93996.34;5075223;28;20484;-79
2023/04/13 10:57:56;;;;;;;6.43;5.10;;;;;;;19.33;34.74;93991.63;5075156;28;20565;-78
2023/04/13 11:00:27;;;;;;;8.50;4.07;;;;;;;19.42;34.78;93992.25;5074870;28;20457;-78
2023/04/13 11:02:56;;;;;;;4.90;3.70;;;;;;;19.43;35.53;93991.22;5074999;28;20991;-81
2023/04/13 11:05:24;;;;;;;6.67;4.57;;;;;;;19.31;33.88;93985.69;5074186;28;20854;-81
2023/04/13 11:07:52;;;;;;;6.07;4.80;;;;;;;19.24;34.05;93979.56;5063104;28;20510;-85
2023/04/13 11:10:25;;;;;;;6.40;4.37;;;;;;;19.35;34.82;93975.47;5074421;28;20438;-80
2023/04/13 11:12:54;;;;;;;5.20;3.90;;;;;;;19.42;34.66;93976.28;5056597;28;20478;-81
2023/04/13 11:15:22;;;;;;;9.10;4.97;;;;;;;19.41;34.69;93964.84;5074681;28;20443;-81
2023/04/13 11:24:33;;;;;;;1729.73;601.90;;;;;;;20.15;44.32;93960.16;5074377;28;20840;-86
2023/04/13 11:27:00;;;;;;;1095.70;431.53;;;;;;;20.52;40.96;93963.88;5075899;28;20482;-87
2023/04/13 11:29:28;;;;;;;149.27;54.50;;;;;;;20.92;35.73;93961.81;5075042;28;20453;-81
2023/04/13 11:31:56;;;;;;;274.23;77.80;;;;;;;21.35;37.84;93969.91;5074530;28;20445;-86
2023/04/13 11:34:25;;;;;;;176.10;56.67;;;;;;;21.74;36.53;93959.91;5075273;28;20909;-87
2023/04/13 11:36:59;;;;;;;21.73;10.70;;;;;;;22.16;35.66;93955.56;5075418;28;20489;-89
2023/04/13 11:39:26;;;;;;;43.43;13.80;;;;;;;22.29;34.38;93946.59;5075259;28;20510;-86
2023/04/13 11:41:54;;;;;;;18.23;7.30;;;;;;;22.46;34.96;93958.28;5075930;28;20494;-84
2023/04/13 11:44:23;;;;;;;8.43;5.37;;;;;;;22.29;30.40;93946.59;5074172;28;20467;-82
2023/04/13 11:46:52;;;;;;;13.53;6.50;;;;;;;22.13;33.08;93942.66;5074416;28;20475;-80